Time;durP1;ratioP1;P1;durP2;ratioP2;P2;SDS_P1;SDS_P2;PMS_P1;PMS_P2;Temp;Humidity;BMP_temperature;BMP_pressure;BME280_temperature;BME280_humidity;BME280_pressure;Samples;Min_cycle;Max_cycle;Signal;HPM_P1;HPM_P2
2023/01/04 00:03:39;;;;;;;15.88;10.98;;;;;;;;;;10309409;28;20100;-65
2023/01/04 00:08:37;;;;;;;12.32;10.05;;;;;;;;;;10308900;28;20179;-66
2023/01/04 00:13:37;;;;;;;14.70;11.40;;;;;;;;;;10309124;28;20672;-65
2023/01/04 00:18:35;;;;;;;15.05;11.68;;;;;;;;;;10308771;28;20163;-65
2023/01/04 00:23:34;;;;;;;13.15;10.38;;;;;;;;;;10308113;28;20045;-65
2023/01/04 00:28:32;;;;;;;12.75;10.70;;;;;;;;;;10280997;28;20082;-66
2023/01/04 00:33:31;;;;;;;14.35;11.00;;;;;;;;;;10307631;28;20044;-65
2023/01/04 00:38:30;;;;;;;12.57;10.35;;;;;;;;;;10306358;28;20120;-65
2023/01/04 00:43:28;;;;;;;14.00;11.35;;;;;;;;;;10307487;28;20048;-66
2023/01/04 00:48:26;;;;;;;14.07;11.85;;;;;;;;;;10307209;28;20399;-65
2023/01/04 00:53:26;;;;;;;13.15;10.60;;;;;;;;;;10307089;28;20056;-66
2023/01/04 00:58:24;;;;;;;12.50;10.88;;;;;;;;;;10307067;28;20415;-65
2023/01/04 01:03:22;;;;;;;13.60;10.38;;;;;;;;;;10306613;28;20051;-65
2023/01/04 01:08:26;;;;;;;13.68;10.82;;;;;;;;;;10306705;28;20476;-66
2023/01/04 01:13:26;;;;;;;14.38;11.30;;;;;;;;;;10306425;28;20068;-66
2023/01/04 01:18:24;;;;;;;15.70;11.60;;;;;;;;;;10306767;28;20459;-66
2023/01/04 01:23:22;;;;;;;12.93;11.38;;;;;;;;;;10293187;28;20044;-66
2023/01/04 01:28:20;;;;;;;12.20;10.88;;;;;;;;;;10304668;28;20048;-65
2023/01/04 01:33:20;;;;;;;15.32;11.80;;;;;;;;;;10305410;28;20528;-66
2023/01/04 01:38:18;;;;;;;14.63;12.30;;;;;;;;;;10260640;28;20065;-65
2023/01/04 01:43:17;;;;;;;12.60;11.07;;;;;;;;;;10263990;28;20458;-67
2023/01/04 01:48:18;;;;;;;15.25;11.90;;;;;;;;;;10275541;28;20139;-65
2023/01/04 01:53:18;;;;;;;12.63;11.32;;;;;;;;;;10304457;28;20044;-66
2023/01/04 01:58:21;;;;;;;13.38;11.98;;;;;;;;;;10303554;28;20063;-66
2023/01/04 02:03:22;;;;;;;14.40;10.73;;;;;;;;;;10304289;28;20044;-65
2023/01/04 02:08:23;;;;;;;15.38;12.25;;;;;;;;;;10305652;28;20056;-65
2023/01/04 02:14:25;;;;;;;17.00;14.80;;;;;;;;;;10308258;28;20037;-66
2023/01/04 02:18:53;;;;;;;12.80;11.02;;;;;;;;;;10304254;28;20130;-66
2023/01/04 02:24:05;;;;;;;12.52;10.90;;;;;;;;;;10305185;28;20448;-66
2023/01/04 02:29:22;;;;;;;14.27;11.00;;;;;;;;;;10305118;28;20049;-65
2023/01/04 02:34:26;;;;;;;15.43;12.02;;;;;;;;;;10304122;28;20131;-66
2023/01/04 02:39:29;;;;;;;24.92;20.65;;;;;;;;;;10304855;28;20072;-66
2023/01/04 02:55:05;;;;;;;29.85;22.75;;;;;;;;;;10302670;28;20079;-65
2023/01/04 03:00:09;;;;;;;20.95;17.45;;;;;;;;;;10306727;28;20068;-66
2023/01/04 03:10:40;;;;;;;19.05;15.63;;;;;;;;;;10310573;28;20163;-65
2023/01/04 03:15:39;;;;;;;18.05;13.77;;;;;;;;;;10298306;28;20727;-66
2023/01/04 03:20:40;;;;;;;13.23;11.82;;;;;;;;;;10311235;28;20434;-66
2023/01/04 03:36:19;;;;;;;22.40;16.35;;;;;;;;;;10309933;28;20378;-66
2023/01/04 03:51:57;;;;;;;14.32;12.82;;;;;;;;;;10309402;28;20097;-65
2023/01/04 03:56:56;;;;;;;17.83;15.32;;;;;;;;;;10293989;28;20071;-66
2023/01/04 04:01:54;;;;;;;17.35;14.60;;;;;;;;;;10307377;28;20139;-67
2023/01/04 04:12:08;;;;;;;;;;;;;;;;;;10308919;28;20056;-66
2023/01/04 04:17:07;;;;;;;32.88;25.52;;;;;;;;;;10308995;28;19959;-65
2023/01/04 04:22:06;;;;;;;31.55;28.23;;;;;;;;;;10308198;28;20075;-65
2023/01/04 04:27:04;;;;;;;43.92;35.53;;;;;;;;;;10307337;28;20059;-66
2023/01/04 04:32:02;;;;;;;29.40;22.55;;;;;;;;;;10293677;28;20049;-66
2023/01/04 04:37:02;;;;;;;18.52;14.95;;;;;;;;;;10307637;28;20098;-66
2023/01/04 04:42:00;;;;;;;14.85;13.25;;;;;;;;;;10307533;28;20427;-65
2023/01/04 04:46:58;;;;;;;14.23;12.52;;;;;;;;;;10306783;28;20036;-65
2023/01/04 04:51:56;;;;;;;14.82;12.68;;;;;;;;;;10292999;28;20143;-66
2023/01/04 04:56:56;;;;;;;17.40;14.07;;;;;;;;;;10306287;28;20059;-66
2023/01/04 05:01:54;;;;;;;16.17;13.88;;;;;;;;;;10292848;28;20064;-66
2023/01/04 05:06:53;;;;;;;15.43;13.13;;;;;;;;;;10306776;28;20358;-66
2023/01/04 05:17:06;;;;;;;;;;;;;;;;;;10307291;28;20057;-66
2023/01/04 05:22:06;;;;;;;22.88;14.73;;;;;;;;;;10289098;28;20385;-66
2023/01/04 05:27:04;;;;;;;17.58;13.98;;;;;;;;;;10275249;28;20049;-65
2023/01/04 05:32:02;;;;;;;18.67;14.43;;;;;;;;;;10285680;28;20051;-65
2023/01/04 05:37:00;;;;;;;17.15;14.93;;;;;;;;;;10292594;28;20060;-66
2023/01/04 05:47:16;;;;;;;35.00;28.02;;;;;;;;;;10280052;28;20072;-66
2023/01/04 05:52:14;;;;;;;24.02;18.92;;;;;;;;;;10304405;28;20516;-66
2023/01/04 05:57:15;;;;;;;22.77;16.27;;;;;;;;;;10306059;28;20115;-66
2023/01/04 06:02:14;;;;;;;20.63;17.52;;;;;;;;;;10301514;28;20084;-67
2023/01/04 06:07:13;;;;;;;52.88;40.00;;;;;;;;;;10259481;28;20104;-66
2023/01/04 06:12:11;;;;;;;38.80;32.13;;;;;;;;;;10266466;28;20387;-66
2023/01/04 06:17:11;;;;;;;18.25;15.93;;;;;;;;;;10267006;28;20360;-66
2023/01/04 06:22:10;;;;;;;20.23;17.30;;;;;;;;;;10267179;28;20087;-66
2023/01/04 06:27:08;;;;;;;18.85;16.33;;;;;;;;;;10265720;28;20064;-66
2023/01/04 06:32:06;;;;;;;18.63;15.68;;;;;;;;;;10265334;28;20140;-66
2023/01/04 06:37:06;;;;;;;21.70;18.27;;;;;;;;;;10267644;28;20064;-65
2023/01/04 06:42:04;;;;;;;19.27;16.42;;;;;;;;;;10310769;28;20496;-66
2023/01/04 06:47:04;;;;;;;25.70;19.95;;;;;;;;;;10313675;28;20037;-66
2023/01/04 06:52:02;;;;;;;116.93;86.53;;;;;;;;;;10286146;28;20069;-66
2023/01/04 06:57:01;;;;;;;38.30;31.88;;;;;;;;;;10286872;28;20043;-66
2023/01/04 07:02:00;;;;;;;22.08;18.67;;;;;;;;;;10287109;28;20126;-64
2023/01/04 07:06:58;;;;;;;19.15;15.95;;;;;;;;;;10296605;28;20079;-66
2023/01/04 07:11:57;;;;;;;19.40;16.67;;;;;;;;;;10310229;28;20044;-65
2023/01/04 07:16:56;;;;;;;20.00;17.45;;;;;;;;;;10275495;28;20060;-66
2023/01/04 07:21:54;;;;;;;21.65;17.63;;;;;;;;;;10303155;28;20091;-66
2023/01/04 07:26:53;;;;;;;48.40;39.47;;;;;;;;;;10295485;28;20484;-66
2023/01/04 07:31:52;;;;;;;57.15;37.50;;;;;;;;;;10281847;28;20504;-66
2023/01/04 07:36:51;;;;;;;73.45;53.03;;;;;;;;;;10310143;28;20060;-66
2023/01/04 07:41:50;;;;;;;43.63;30.33;;;;;;;;;;10286617;28;20087;-66
2023/01/04 07:46:50;;;;;;;42.45;26.85;;;;;;;;;;10287481;28;20167;-66
2023/01/04 07:51:49;;;;;;;21.90;18.88;;;;;;;;;;10306158;28;20076;-64
2023/01/04 07:56:49;;;;;;;24.52;19.17;;;;;;;;;;10271583;28;20156;-65
2023/01/04 08:01:48;;;;;;;21.75;19.02;;;;;;;;;;10298172;28;20068;-65
2023/01/04 08:06:46;;;;;;;27.92;20.38;;;;;;;;;;10266537;28;20433;-65
2023/01/04 08:11:44;;;;;;;21.98;19.23;;;;;;;;;;10270447;28;20064;-64
2023/01/04 08:16:44;;;;;;;84.13;65.32;;;;;;;;;;10270610;28;20067;-65
2023/01/04 08:21:42;;;;;;;84.45;63.65;;;;;;;;;;10268081;28;20091;-65
2023/01/04 08:26:41;;;;;;;64.78;48.83;;;;;;;;;;10263880;28;20052;-65
2023/01/04 08:31:39;;;;;;;57.40;41.05;;;;;;;;;;10266830;28;20065;-64
2023/01/04 08:36:46;;;;;;;51.55;41.67;;;;;;;;;;10291006;28;20068;-64
2023/01/04 08:41:51;;;;;;;76.70;59.25;;;;;;;;;;10279626;28;20080;-65
2023/01/04 08:47:12;;;;;;;65.30;51.33;;;;;;;;;;10272972;28;20052;-65
2023/01/04 08:52:14;;;;;;;72.22;58.40;;;;;;;;;;10267089;28;20061;-65
2023/01/04 08:57:12;;;;;;;65.15;50.40;;;;;;;;;;10276497;28;20040;-64
2023/01/04 09:02:19;;;;;;;62.03;46.30;;;;;;;;;;10278131;28;20068;-65
2023/01/04 09:07:19;;;;;;;88.68;64.78;;;;;;;;;;10275318;28;20044;-65
2023/01/04 09:12:17;;;;;;;40.08;33.50;;;;;;;;;;10291403;28;20044;-65
2023/01/04 09:17:15;;;;;;;45.00;35.92;;;;;;;;;;10270426;28;20068;-65
2023/01/04 09:22:13;;;;;;;31.02;22.95;;;;;;;;;;10267549;28;20096;-65
2023/01/04 09:27:13;;;;;;;27.98;24.88;;;;;;;;;;10271613;28;20053;-64
2023/01/04 09:32:11;;;;;;;45.10;35.45;;;;;;;;;;10264906;28;20080;-64
2023/01/04 09:37:14;;;;;;;30.48;22.55;;;;;;;;;;10272064;28;20079;-64
2023/01/04 09:42:17;;;;;;;33.47;29.50;;;;;;;;;;10279330;28;20125;-63
2023/01/04 09:47:17;;;;;;;63.20;56.47;;;;;;;;;;10266238;28;20068;-64
2023/01/04 09:52:18;;;;;;;34.58;30.40;;;;;;;;;;10297191;28;20060;-64
2023/01/04 09:57:22;;;;;;;32.58;27.90;;;;;;;;;;10303530;28;20458;-64
2023/01/04 10:02:23;;;;;;;35.00;25.80;;;;;;;;;;10305474;28;20060;-63
2023/01/04 10:07:27;;;;;;;43.30;31.02;;;;;;;;;;10305910;28;20048;-65
2023/01/04 10:12:41;;;;;;;32.88;25.30;;;;;;;;;;10313589;28;20037;-64
2023/01/04 10:17:46;;;;;;;39.43;29.73;;;;;;;;;;10314204;28;20044;-64
2023/01/04 10:23:08;;;;;;;46.10;36.72;;;;;;;;;;10300677;28;20079;-63
2023/01/04 10:28:16;;;;;;;57.78;39.75;;;;;;;;;;10312673;28;20104;-64
2023/01/04 10:33:15;;;;;;;127.10;79.05;;;;;;;;;;10315695;28;20393;-65
2023/01/04 10:38:16;;;;;;;107.97;74.95;;;;;;;;;;10314599;28;20040;-64
2023/01/04 10:43:21;;;;;;;54.70;40.67;;;;;;;;;;10313438;28;20076;-63
2023/01/04 10:48:22;;;;;;;42.67;33.38;;;;;;;;;;10311240;28;20056;-64
2023/01/04 10:53:23;;;;;;;41.40;33.08;;;;;;;;;;10312144;28;20055;-64
2023/01/04 10:58:26;;;;;;;31.42;25.52;;;;;;;;;;10312228;28;20052;-64
2023/01/04 11:03:26;;;;;;;30.02;24.48;;;;;;;;;;10309595;28;20426;-64
2023/01/04 11:08:28;;;;;;;50.28;38.08;;;;;;;;;;10312238;28;20033;-64
2023/01/04 11:13:28;;;;;;;32.67;27.50;;;;;;;;;;10310973;28;20433;-65
2023/01/04 11:18:26;;;;;;;28.90;23.70;;;;;;;;;;10311310;28;20037;-64
2023/01/04 11:23:25;;;;;;;33.33;26.80;;;;;;;;;;10309657;28;20068;-63
2023/01/04 11:28:25;;;;;;;25.95;23.15;;;;;;;;;;10310579;28;20165;-63
2023/01/04 11:33:25;;;;;;;49.25;39.08;;;;;;;;;;10296960;28;20089;-64
2023/01/04 11:38:24;;;;;;;34.03;27.63;;;;;;;;;;10298106;28;20093;-64
2023/01/04 11:43:22;;;;;;;39.15;30.00;;;;;;;;;;10310342;28;20076;-64
2023/01/04 11:48:30;;;;;;;35.35;29.48;;;;;;;;;;10312126;28;20066;-65
2023/01/04 11:53:30;;;;;;;42.42;34.03;;;;;;;;;;10303971;28;20064;-64
2023/01/04 11:58:29;;;;;;;41.72;31.90;;;;;;;;;;10299666;28;20715;-65
2023/01/04 12:03:31;;;;;;;46.08;37.47;;;;;;;;;;10292407;28;20125;-64
2023/01/04 12:08:31;;;;;;;63.38;44.55;;;;;;;;;;10315101;28;20047;-64
2023/01/04 12:13:30;;;;;;;56.65;43.92;;;;;;;;;;10311870;28;20386;-64
2023/01/04 12:18:30;;;;;;;33.75;27.30;;;;;;;;;;10299923;28;20053;-64
2023/01/04 12:23:29;;;;;;;29.50;24.85;;;;;;;;;;10313036;28;20391;-64
2023/01/04 12:28:32;;;;;;;30.30;24.73;;;;;;;;;;10312112;28;20516;-64
2023/01/04 12:33:39;;;;;;;46.80;33.30;;;;;;;;;;10300264;28;20052;-64
2023/01/04 12:38:55;;;;;;;66.30;41.78;;;;;;;;;;10298957;28;20064;-65
2023/01/04 12:43:55;;;;;;;47.88;30.98;;;;;;;;;;10302914;28;20451;-65
2023/01/04 12:49:03;;;;;;;30.02;24.10;;;;;;;;;;10307493;28;20504;-64
2023/01/04 12:54:03;;;;;;;27.75;22.67;;;;;;;;;;10312432;28;20091;-64
2023/01/04 12:59:11;;;;;;;31.88;25.15;;;;;;;;;;10311265;28;20051;-64
2023/01/04 13:04:39;;;;;;;30.95;23.20;;;;;;;;;;10311439;28;20068;-64
2023/01/04 13:09:41;;;;;;;26.87;21.53;;;;;;;;;;10311681;28;20144;-64
2023/01/04 13:14:48;;;;;;;33.85;23.10;;;;;;;;;;10310833;28;20048;-64
2023/01/04 13:19:48;;;;;;;30.70;23.02;;;;;;;;;;10309294;28;20048;-64
2023/01/04 13:24:47;;;;;;;31.40;23.73;;;;;;;;;;10296490;28;20079;-64
2023/01/04 13:29:46;;;;;;;26.95;20.38;;;;;;;;;;10308749;28;20076;-64
2023/01/04 13:34:48;;;;;;;21.67;17.48;;;;;;;;;;10308739;28;20696;-64
2023/01/04 13:39:49;;;;;;;25.25;18.95;;;;;;;;;;10309144;28;20044;-64
2023/01/04 13:44:56;;;;;;;22.90;16.48;;;;;;;;;;10308484;28;20064;-64
2023/01/04 13:50:23;;;;;;;20.33;15.32;;;;;;;;;;10308003;28;20071;-65
2023/01/04 13:55:26;;;;;;;20.73;17.88;;;;;;;;;;10308900;28;20354;-65
2023/01/04 14:00:26;;;;;;;19.60;13.70;;;;;;;;;;10309296;28;20148;-65
2023/01/04 14:05:24;;;;;;;15.10;11.07;;;;;;;;;;10306733;28;20049;-64
2023/01/04 14:10:24;;;;;;;23.27;18.23;;;;;;;;;;10308892;28;20495;-64
2023/01/04 14:15:23;;;;;;;28.00;20.52;;;;;;;;;;10307663;28;20056;-64
2023/01/04 14:20:42;;;;;;;19.42;16.45;;;;;;;;;;10306296;28;20086;-65
2023/01/04 14:25:47;;;;;;;19.45;14.13;;;;;;;;;;10303567;28;20084;-64
2023/01/04 14:30:45;;;;;;;18.73;13.98;;;;;;;;;;10307730;28;20049;-64
2023/01/04 14:35:44;;;;;;;25.35;17.40;;;;;;;;;;10306824;28;20045;-65
2023/01/04 14:40:48;;;;;;;24.05;17.40;;;;;;;;;;10307695;28;20116;-64
2023/01/04 14:45:46;;;;;;;19.00;14.27;;;;;;;;;;10305940;28;20075;-63
2023/01/04 14:50:44;;;;;;;26.38;18.13;;;;;;;;;;10306634;28;20044;-64
2023/01/04 14:55:42;;;;;;;22.05;15.05;;;;;;;;;;10307654;28;20092;-63
2023/01/04 15:00:42;;;;;;;22.92;14.85;;;;;;;;;;10314818;28;20049;-63
2023/01/04 15:05:41;;;;;;;17.88;13.82;;;;;;;;;;10314259;28;20253;-63
2023/01/04 15:10:39;;;;;;;55.15;41.85;;;;;;;;;;10313104;28;20139;-63
2023/01/04 15:15:37;;;;;;;23.02;18.02;;;;;;;;;;10298390;28;20100;-63
2023/01/04 15:20:38;;;;;;;31.63;24.25;;;;;;;;;;10311235;28;20144;-64
2023/01/04 15:25:38;;;;;;;39.92;32.50;;;;;;;;;;10293438;28;20071;-63
2023/01/04 15:30:44;;;;;;;30.55;22.67;;;;;;;;;;10288545;28;20116;-62
2023/01/04 15:35:44;;;;;;;25.52;19.35;;;;;;;;;;10278603;28;20037;-61
2023/01/04 15:40:49;;;;;;;83.35;50.72;;;;;;;;;;10299282;28;20072;-63
2023/01/04 15:45:48;;;;;;;37.97;27.98;;;;;;;;;;10283035;28;20052;-66
2023/01/04 15:50:47;;;;;;;33.53;27.23;;;;;;;;;;10272437;28;20115;-66
2023/01/04 15:55:45;;;;;;;34.42;20.67;;;;;;;;;;10273316;28;20080;-66
2023/01/04 16:00:44;;;;;;;29.67;22.38;;;;;;;;;;10295253;28;20056;-65
2023/01/04 16:05:49;;;;;;;37.15;26.85;;;;;;;;;;10274565;28;20480;-66
2023/01/04 16:10:47;;;;;;;32.58;26.23;;;;;;;;;;10274092;28;20048;-65
2023/01/04 16:15:45;;;;;;;28.40;21.13;;;;;;;;;;10288072;28;20051;-65
2023/01/04 16:20:43;;;;;;;25.48;18.50;;;;;;;;;;10284051;28;20075;-65
2023/01/04 16:25:43;;;;;;;29.30;21.58;;;;;;;;;;10291267;28;20083;-65
2023/01/04 16:30:41;;;;;;;35.50;29.88;;;;;;;;;;10295271;28;20072;-65
2023/01/04 16:35:39;;;;;;;37.92;29.08;;;;;;;;;;10277930;28;20408;-65
2023/01/04 16:40:38;;;;;;;33.13;27.77;;;;;;;;;;10280835;28;20075;-64
2023/01/04 16:45:37;;;;;;;88.75;63.63;;;;;;;;;;10294784;28;20073;-64
2023/01/04 16:50:38;;;;;;;98.00;69.18;;;;;;;;;;10293307;28;20080;-63
2023/01/04 16:55:37;;;;;;;48.50;35.95;;;;;;;;;;10307569;28;20120;-64
2023/01/04 17:00:35;;;;;;;75.05;56.85;;;;;;;;;;10288772;28;20072;-62
2023/01/04 17:05:38;;;;;;;97.13;76.57;;;;;;;;;;10277133;28;20072;-64
2023/01/04 17:10:36;;;;;;;129.52;78.78;;;;;;;;;;10292303;28;20420;-63
2023/01/04 17:15:35;;;;;;;110.75;71.30;;;;;;;;;;10307267;28;20466;-63
2023/01/04 17:20:43;;;;;;;60.22;42.63;;;;;;;;;;10282018;28;20056;-63
2023/01/04 17:25:41;;;;;;;76.95;53.92;;;;;;;;;;10292462;28;20072;-64
2023/01/04 17:30:40;;;;;;;64.95;46.20;;;;;;;;;;10273481;28;20075;-63
2023/01/04 17:35:39;;;;;;;118.72;81.30;;;;;;;;;;10292403;28;20052;-64
2023/01/04 17:40:39;;;;;;;99.65;70.40;;;;;;;;;;10305829;28;20366;-64
2023/01/04 17:45:37;;;;;;;83.72;58.90;;;;;;;;;;10288818;28;20100;-62
2023/01/04 17:50:35;;;;;;;77.85;55.17;;;;;;;;;;10269947;28;20064;-63
2023/01/04 17:55:33;;;;;;;69.70;51.88;;;;;;;;;;10263663;28;20048;-63
2023/01/04 18:00:33;;;;;;;76.50;53.42;;;;;;;;;;10267424;28;20076;-62
2023/01/04 18:05:31;;;;;;;55.80;39.13;;;;;;;;;;10266246;28;20064;-63
2023/01/04 18:10:49;;;;;;;49.35;38.40;;;;;;;;;;10263444;28;20064;-63
2023/01/04 18:16:07;;;;;;;44.42;34.25;;;;;;;;;;10267693;28;20061;-61
2023/01/04 18:21:25;;;;;;;93.07;64.05;;;;;;;;;;10263838;28;20087;-62
2023/01/04 18:26:26;;;;;;;94.85;64.38;;;;;;;;;;10265272;28;20068;-63
2023/01/04 18:31:35;;;;;;;73.13;55.03;;;;;;;;;;10270666;28;20095;-63
2023/01/04 18:36:33;;;;;;;71.20;55.58;;;;;;;;;;10284643;28;20117;-63
2023/01/04 18:41:39;;;;;;;74.65;57.95;;;;;;;;;;10273139;28;20120;-62
2023/01/04 18:46:40;;;;;;;86.43;64.95;;;;;;;;;;10278209;28;20072;-63
2023/01/04 18:51:38;;;;;;;113.10;85.65;;;;;;;;;;10271386;28;20064;-63
2023/01/04 18:56:36;;;;;;;107.53;80.68;;;;;;;;;;10271219;28;20049;-64
2023/01/04 19:01:34;;;;;;;114.45;85.72;;;;;;;;;;10278695;28;20495;-63
2023/01/04 19:06:34;;;;;;;99.78;75.05;;;;;;;;;;10268898;28;20420;-63
2023/01/04 19:11:32;;;;;;;85.88;65.50;;;;;;;;;;10293013;28;20056;-63
2023/01/04 19:16:31;;;;;;;79.95;60.55;;;;;;;;;;10295430;28;20068;-63
2023/01/04 19:21:29;;;;;;;61.50;42.08;;;;;;;;;;10270967;28;20064;-63
2023/01/04 19:26:28;;;;;;;41.75;33.58;;;;;;;;;;10292376;28;20071;-63
2023/01/04 19:31:27;;;;;;;44.95;31.52;;;;;;;;;;10285813;28;20095;-63
2023/01/04 19:36:25;;;;;;;35.90;29.70;;;;;;;;;;10265059;28;20072;-63
2023/01/04 19:41:26;;;;;;;30.77;24.40;;;;;;;;;;10305090;28;20068;-64
2023/01/04 19:46:32;;;;;;;29.67;23.80;;;;;;;;;;10274792;28;20119;-63
2023/01/04 19:51:30;;;;;;;22.02;19.50;;;;;;;;;;10266184;28;20459;-63
2023/01/04 19:56:28;;;;;;;25.92;21.30;;;;;;;;;;10268020;28;20085;-63
2023/01/04 20:01:27;;;;;;;22.15;16.95;;;;;;;;;;10298496;28;20079;-63
2023/01/04 20:06:28;;;;;;;23.30;17.90;;;;;;;;;;10307354;28;20561;-63
2023/01/04 20:11:26;;;;;;;25.92;20.70;;;;;;;;;;10297274;28;20371;-63
2023/01/04 20:16:24;;;;;;;25.90;20.73;;;;;;;;;;10278974;28;20068;-63
2023/01/04 20:21:22;;;;;;;29.58;26.00;;;;;;;;;;10277955;28;20120;-64
2023/01/04 20:26:22;;;;;;;28.88;24.10;;;;;;;;;;10266661;28;20076;-63
2023/01/04 20:31:20;;;;;;;26.27;22.98;;;;;;;;;;10275958;28;20063;-63
2023/01/04 20:36:19;;;;;;;33.03;23.77;;;;;;;;;;10266235;28;20113;-63
2023/01/04 20:41:18;;;;;;;30.42;24.27;;;;;;;;;;10267283;28;20041;-63
2023/01/04 20:46:19;;;;;;;29.25;24.33;;;;;;;;;;10272848;28;20119;-63
2023/01/04 20:51:17;;;;;;;29.40;23.35;;;;;;;;;;10292310;28;20493;-63
2023/01/04 20:56:17;;;;;;;30.70;24.55;;;;;;;;;;10273682;28;20040;-63
2023/01/04 21:01:15;;;;;;;36.40;26.38;;;;;;;;;;10298538;28;20049;-63
2023/01/04 21:06:17;;;;;;;34.88;25.75;;;;;;;;;;10309051;28;20152;-63
2023/01/04 21:11:15;;;;;;;70.38;44.22;;;;;;;;;;10308472;28;20078;-63
2023/01/04 21:16:14;;;;;;;141.15;94.25;;;;;;;;;;10280663;28;20469;-62
2023/01/04 21:21:13;;;;;;;30.17;23.70;;;;;;;;;;10305815;28;20378;-63
2023/01/04 21:26:14;;;;;;;27.60;22.77;;;;;;;;;;10296425;28;20162;-62
2023/01/04 21:31:13;;;;;;;27.30;20.65;;;;;;;;;;10264319;28;20076;-62
2023/01/04 21:36:12;;;;;;;37.88;29.00;;;;;;;;;;10260987;28;20076;-63
2023/01/04 21:41:11;;;;;;;37.58;25.00;;;;;;;;;;10266094;28;20111;-63
2023/01/04 21:46:11;;;;;;;42.95;27.33;;;;;;;;;;10279553;28;20411;-62
2023/01/04 21:51:10;;;;;;;56.17;33.92;;;;;;;;;;10297455;28;20052;-62
2023/01/04 21:56:09;;;;;;;46.80;32.35;;;;;;;;;;10267452;28;20053;-63
2023/01/04 22:01:08;;;;;;;57.15;36.72;;;;;;;;;;10293513;28;20047;-63
2023/01/04 22:06:08;;;;;;;68.80;45.50;;;;;;;;;;10306170;28;20132;-62
2023/01/04 22:11:06;;;;;;;81.65;49.88;;;;;;;;;;10298955;28;20355;-62
2023/01/04 22:16:05;;;;;;;63.95;41.65;;;;;;;;;;10274417;28;20378;-62
2023/01/04 22:21:04;;;;;;;77.57;46.97;;;;;;;;;;10277753;28;20064;-62
2023/01/04 22:26:04;;;;;;;62.78;38.95;;;;;;;;;;10264734;28;20411;-62
2023/01/04 22:31:03;;;;;;;88.55;53.03;;;;;;;;;;10264714;28;20045;-63
2023/01/04 22:36:05;;;;;;;64.10;38.20;;;;;;;;;;10260961;28;20045;-62
2023/01/04 22:41:07;;;;;;;121.43;67.10;;;;;;;;;;10263244;28;20411;-62
2023/01/04 22:46:06;;;;;;;111.40;56.08;;;;;;;;;;10264045;28;20099;-62
2023/01/04 22:51:06;;;;;;;88.50;51.97;;;;;;;;;;10276736;28;20500;-62
2023/01/04 22:56:05;;;;;;;57.47;35.50;;;;;;;;;;10304933;28;20056;-63
2023/01/04 23:01:22;;;;;;;38.63;27.10;;;;;;;;;;10305387;28;20068;-63
2023/01/04 23:06:20;;;;;;;34.63;24.85;;;;;;;;;;10304297;28;20079;-63
2023/01/04 23:11:19;;;;;;;32.00;22.98;;;;;;;;;;10305552;28;20154;-63
2023/01/04 23:16:17;;;;;;;36.28;23.85;;;;;;;;;;10305659;28;20063;-64
2023/01/04 23:21:16;;;;;;;36.25;26.17;;;;;;;;;;10312108;28;20401;-64
2023/01/04 23:26:16;;;;;;;39.38;27.38;;;;;;;;;;10312881;28;20403;-62
2023/01/04 23:31:16;;;;;;;43.97;29.70;;;;;;;;;;10295220;28;20052;-63
2023/01/04 23:36:15;;;;;;;43.15;30.00;;;;;;;;;;10281942;28;20451;-62
2023/01/04 23:41:15;;;;;;;43.58;27.60;;;;;;;;;;10282256;28;20113;-62
2023/01/04 23:46:14;;;;;;;33.80;24.23;;;;;;;;;;10297610;28;20060;-62
2023/01/04 23:51:12;;;;;;;35.90;22.80;;;;;;;;;;10310511;28;20096;-62
2023/01/04 23:56:13;;;;;;;33.72;24.52;;;;;;;;;;10310267;28;20131;-63
